createdAt,value
2022-08-11T00:01:20.502Z,2.92
2022-08-11T00:06:40.831Z,2.47
2022-08-11T00:11:48.691Z,2.45
2022-08-11T00:17:08.839Z,2.22
2022-08-11T00:22:11.978Z,2.63
2022-08-11T00:27:14.293Z,2.72
2022-08-11T00:32:16.248Z,2.42
2022-08-11T00:37:23.066Z,2.35
2022-08-11T00:42:32.873Z,2.53
2022-08-11T00:48:02.796Z,2.50
2022-08-11T00:53:16.653Z,2.40
2022-08-11T00:58:38.772Z,2.58
2022-08-11T01:03:59.791Z,2.90
2022-08-11T01:09:25.176Z,2.47
2022-08-11T01:15:14.527Z,3.05
2022-08-11T01:20:57.204Z,2.42
2022-08-11T01:26:36.243Z,3.05
2022-08-11T01:31:37.698Z,2.90
2022-08-11T01:37:02.778Z,2.50
2022-08-11T01:42:22.372Z,3.13
2022-08-11T01:47:38.207Z,2.55
2022-08-11T01:53:26.699Z,3.10
2022-08-11T01:58:44.561Z,2.72
2022-08-11T02:04:18.863Z,2.97
2022-08-11T02:09:33.494Z,2.75
2022-08-11T02:14:42.599Z,2.97
2022-08-11T02:20:41.884Z,2.80
2022-08-11T02:25:56.183Z,2.90
2022-08-11T02:31:12.022Z,2.90
2022-08-11T02:36:42.693Z,3.15
2022-08-11T02:41:58.600Z,2.95
2022-08-11T02:47:13.541Z,3.35
2022-08-11T02:52:25.895Z,3.70
2022-08-11T02:57:40.384Z,3.72
2022-08-11T03:03:04.209Z,3.88
2022-08-11T03:08:15.617Z,3.88
2022-08-11T03:13:25.601Z,3.95
2022-08-11T03:18:37.446Z,3.75
2022-08-11T03:23:55.806Z,3.67
2022-08-11T03:29:18.270Z,3.78
2022-08-11T03:39:56.213Z,4.13
2022-08-11T03:45:23.476Z,3.85
2022-08-11T03:50:55.138Z,4.40
2022-08-11T03:56:28.165Z,4.38
2022-08-11T04:02:08.300Z,4.45
2022-08-11T04:07:18.676Z,4.22
2022-08-11T04:12:38.463Z,3.63
2022-08-11T04:18:05.156Z,3.63
2022-08-11T04:24:36.635Z,4.55
2022-08-11T04:29:20.099Z,3.15
2022-08-11T04:34:36.780Z,3.63
2022-08-11T04:40:18.734Z,3.75
2022-08-11T04:46:01.802Z,3.45
2022-08-11T04:51:30.815Z,3.78
2022-08-11T04:56:35.083Z,3.83
2022-08-11T05:01:51.003Z,3.88
2022-08-11T05:07:29.419Z,3.40
2022-08-11T05:12:42.001Z,4.18
2022-08-11T05:18:02.419Z,4.45
2022-08-11T05:23:08.941Z,3.45
2022-08-11T05:28:16.743Z,3.75
2022-08-11T05:33:25.475Z,3.47
2022-08-11T05:38:33.272Z,2.90
2022-08-11T05:43:39.819Z,3.17
2022-08-11T05:49:01.865Z,3.13
2022-08-11T05:54:27.894Z,2.60
2022-08-11T05:59:29.476Z,2.60
2022-08-11T06:04:32.373Z,3.20
2022-08-11T06:09:36.125Z,2.70
2022-08-11T06:14:45.607Z,2.85
2022-08-11T06:19:48.613Z,2.53
2022-08-11T06:24:55.906Z,2.50
2022-08-11T06:29:58.796Z,2.70
2022-08-11T06:35:07.485Z,2.58
2022-08-11T06:40:25.723Z,2.95
2022-08-11T06:45:52.259Z,2.65
2022-08-11T06:51:02.210Z,2.60
2022-08-11T06:56:04.207Z,2.88
2022-08-11T07:01:13.806Z,2.47
2022-08-11T07:06:28.378Z,2.85
2022-08-11T07:12:00.214Z,3.47
2022-08-11T07:17:02.851Z,2.47
2022-08-11T07:22:07.492Z,3.08
2022-08-11T07:27:14.362Z,2.80
2022-08-11T07:32:26.793Z,2.83
2022-08-11T07:37:32.384Z,2.30
2022-08-11T07:42:34.741Z,2.28
2022-08-11T07:47:39.391Z,2.40
2022-08-11T07:52:41.322Z,3.40
2022-08-11T07:58:14.797Z,2.70
2022-08-11T08:03:09.804Z,2.92
2022-08-11T08:08:14.620Z,2.10
2022-08-11T08:13:19.075Z,2.70
2022-08-11T08:18:27.545Z,2.90
2022-08-11T08:23:29.697Z,2.65
2022-08-11T08:28:33.741Z,2.58
2022-08-11T08:33:35.502Z,2.65
2022-08-11T08:38:52.285Z,2.00
2022-08-11T08:44:15.167Z,2.92
2022-08-11T08:49:35.348Z,2.45
2022-08-11T08:54:44.532Z,1.88
2022-08-11T08:59:49.802Z,2.40
2022-08-11T09:04:53.754Z,2.58
2022-08-11T09:09:58.898Z,2.40
2022-08-11T09:15:04.187Z,2.25
2022-08-11T09:20:08.953Z,2.05
2022-08-11T09:25:10.624Z,2.00
2022-08-11T09:30:12.279Z,2.10
2022-08-11T09:35:14.154Z,1.92
2022-08-11T09:40:16.436Z,2.22
2022-08-11T09:45:19.984Z,2.83
2022-08-11T09:50:22.656Z,1.90
2022-08-11T09:55:25.117Z,2.10
2022-08-11T10:00:34.956Z,2.17
2022-08-11T10:05:38.241Z,2.38
2022-08-11T10:10:40.981Z,2.13
2022-08-11T10:15:59.694Z,2.03
2022-08-11T10:21:40.239Z,2.05
2022-08-11T10:26:43.478Z,1.90
2022-08-11T10:31:59.372Z,2.53
2022-08-11T10:37:07.204Z,2.00
2022-08-11T10:42:34.962Z,2.20
2022-08-11T10:47:39.328Z,2.33
2022-08-11T10:52:51.512Z,2.28
2022-08-11T10:58:04.678Z,1.88
2022-08-11T11:03:23.161Z,1.58
2022-08-11T11:08:29.589Z,2.15
2022-08-11T11:13:35.234Z,2.05
2022-08-11T11:18:38.043Z,2.30
2022-08-11T11:23:39.518Z,2.13
2022-08-11T11:28:59.070Z,2.15
2022-08-11T11:34:32.152Z,2.20
2022-08-11T11:39:36.594Z,2.10
2022-08-11T11:44:39.827Z,2.08
2022-08-11T11:49:43.676Z,2.10
2022-08-11T11:54:51.972Z,2.17
2022-08-11T11:59:54.513Z,2.08
2022-08-11T12:04:56.744Z,2.00
2022-08-11T12:09:59.119Z,1.98
2022-08-11T12:15:01.210Z,1.73
2022-08-11T12:20:31.872Z,1.92
2022-08-11T12:25:32.215Z,2.00
2022-08-11T12:30:34.032Z,2.28
2022-08-11T12:35:37.078Z,2.03
2022-08-11T12:41:13.751Z,1.75
2022-08-11T12:46:05.685Z,2.03
2022-08-11T12:51:10.798Z,2.05
2022-08-11T12:56:12.998Z,1.90
2022-08-11T13:01:15.437Z,2.17
2022-08-11T13:06:18.714Z,2.00
2022-08-11T13:11:21.441Z,1.90
2022-08-11T13:16:31.827Z,2.10
2022-08-11T13:21:33.585Z,2.35
2022-08-11T13:26:46.862Z,1.85
2022-08-11T13:31:55.247Z,2.40
2022-08-11T13:37:00.952Z,2.53
2022-08-11T13:42:04.510Z,1.95
2022-08-11T13:47:11.572Z,2.05
2022-08-11T13:52:15.774Z,2.38
2022-08-11T13:58:08.877Z,2.25
2022-08-11T14:02:43.308Z,2.10
2022-08-11T14:08:00.300Z,2.30
2022-08-11T14:13:12.787Z,1.90
2022-08-11T14:18:25.931Z,2.20
2022-08-11T14:23:55.347Z,2.13
2022-08-11T14:29:07.441Z,1.92
2022-08-11T14:34:10.557Z,1.80
2022-08-11T14:39:15.458Z,1.90
2022-08-11T14:44:18.120Z,2.67
2022-08-11T14:49:20.467Z,2.28
2022-08-11T14:54:28.027Z,2.33
2022-08-11T14:59:30.341Z,2.35
2022-08-11T15:04:35.851Z,2.15
2022-08-11T15:10:02.385Z,1.90
2022-08-11T15:15:06.052Z,2.22
2022-08-11T15:20:11.444Z,1.95
2022-08-11T15:25:13.360Z,2.20
2022-08-11T15:30:32.784Z,2.22
2022-08-11T15:35:39.131Z,1.80
2022-08-11T15:40:43.463Z,2.25
2022-08-11T15:45:50.144Z,2.10
2022-08-11T15:50:54.277Z,2.35
2022-08-11T16:01:04.275Z,1.70
2022-08-11T16:06:12.867Z,2.13
2022-08-11T16:11:15.648Z,1.90
2022-08-11T16:16:17.798Z,2.10
2022-08-11T16:21:40.143Z,2.47
2022-08-11T16:27:09.614Z,2.70
2022-08-11T16:32:07.657Z,1.83
2022-08-11T16:37:09.589Z,2.33
2022-08-11T16:43:05.309Z,2.35
2022-08-11T16:48:02.110Z,2.22
2022-08-11T16:52:56.412Z,2.13
2022-08-11T16:57:59.388Z,2.40
2022-08-11T17:03:03.088Z,2.63
2022-08-11T17:08:07.366Z,2.10
2022-08-11T17:13:10.620Z,1.65
2022-08-11T17:18:15.757Z,2.40
2022-08-11T17:23:17.363Z,2.25
2022-08-11T17:28:21.388Z,2.17
2022-08-11T17:33:27.410Z,2.58
2022-08-11T17:38:31.297Z,2.55
2022-08-11T17:43:34.136Z,2.25
2022-08-11T17:48:47.891Z,2.60
2022-08-11T17:54:09.938Z,2.15
2022-08-11T17:59:13.469Z,2.10
2022-08-11T18:04:17.308Z,1.90
2022-08-11T18:09:21.197Z,2.42
2022-08-11T18:14:24.141Z,2.40
2022-08-11T18:19:25.768Z,2.10
2022-08-11T18:24:32.916Z,2.22
2022-08-11T18:29:42.080Z,2.22
2022-08-11T18:34:45.801Z,2.50
2022-08-11T18:40:04.615Z,2.60
2022-08-11T18:45:11.162Z,2.53
2022-08-11T18:50:14.867Z,2.45
2022-08-11T18:55:23.907Z,2.55
2022-08-11T19:00:26.720Z,3.17
2022-08-11T19:06:35.662Z,1.95
2022-08-11T19:10:56.138Z,2.72
2022-08-11T19:15:57.919Z,2.13
2022-08-11T19:21:00.474Z,3.20
2022-08-11T19:26:04.361Z,2.42
2022-08-11T19:31:08.598Z,2.88
2022-08-11T19:36:10.325Z,2.65
2022-08-11T19:41:16.112Z,3.15
2022-08-11T19:46:23.987Z,3.03
2022-08-11T19:51:27.037Z,3.03
2022-08-11T19:56:29.775Z,3.15
2022-08-11T20:01:31.503Z,3.40
2022-08-11T20:06:36.454Z,3.05
2022-08-11T20:11:43.009Z,3.27
2022-08-11T20:16:45.148Z,3.08
2022-08-11T20:21:47.774Z,2.83
2022-08-11T20:26:50.565Z,2.95
2022-08-11T20:31:52.978Z,3.03
2022-08-11T20:36:55.347Z,3.58
2022-08-11T20:41:59.652Z,2.90
2022-08-11T20:47:03.338Z,3.17
2022-08-11T20:52:07.226Z,2.90
2022-08-11T20:57:13.303Z,2.88
2022-08-11T21:02:17.979Z,2.92
2022-08-11T21:07:28.146Z,3.35
2022-08-11T21:12:31.518Z,3.30
2022-08-11T21:17:36.257Z,3.45
2022-08-11T21:23:06.377Z,2.72
2022-08-11T21:28:10.820Z,3.22
2022-08-11T21:33:13.531Z,4.07
2022-08-11T21:38:17.904Z,3.78
2022-08-11T21:43:21.813Z,3.55
2022-08-11T21:48:26.948Z,3.60
2022-08-11T21:53:29.666Z,2.95
2022-08-11T21:58:32.494Z,3.50
2022-08-11T22:03:50.024Z,3.22
2022-08-11T22:08:52.098Z,3.50
2022-08-11T22:14:06.007Z,2.85
2022-08-11T22:19:10.253Z,3.45
2022-08-11T22:24:12.300Z,3.25
2022-08-11T22:29:20.001Z,3.65
2022-08-11T22:34:52.560Z,3.85
2022-08-11T22:40:01.870Z,3.47
2022-08-11T22:45:05.285Z,3.35
2022-08-11T22:50:09.955Z,3.28
2022-08-11T22:55:12.986Z,3.70
2022-08-11T23:00:16.620Z,3.08
2022-08-11T23:05:19.255Z,3.42
2022-08-11T23:10:21.882Z,3.40
2022-08-11T23:15:24.574Z,3.00
2022-08-11T23:20:36.430Z,3.85
2022-08-11T23:25:45.489Z,3.65
2022-08-11T23:30:47.568Z,3.50
2022-08-11T23:35:56.558Z,3.58
2022-08-11T23:41:00.100Z,3.40
2022-08-11T23:46:01.642Z,3.70
2022-08-11T23:51:04.186Z,3.78
2022-08-11T23:56:06.316Z,4.03
